Time;durP1;ratioP1;P1;durP2;ratioP2;P2;SDS_P1;SDS_P2;PMS_P1;PMS_P2;Temp;Humidity;BMP_temperature;BMP_pressure;BME280_temperature;BME280_humidity;BME280_pressure;Samples;Min_cycle;Max_cycle;Signal;HPM_P1;HPM_P2
2022/02/24 00:00:37;;;;;;;33.00;8.85;;;;;;;0.69;79.81;101721.44;1764926;80;21040;-82
2022/02/24 00:03:06;;;;;;;34.70;8.23;;;;;;;0.71;79.86;101718.97;1764989;80;21084;-81
2022/02/24 00:05:32;;;;;;;25.48;7.53;;;;;;;0.72;79.85;101722.98;1765061;79;20997;-82
2022/02/24 00:07:59;;;;;;;35.55;8.23;;;;;;;0.71;79.82;101721.20;1765252;79;21141;-82
2022/02/24 00:10:25;;;;;;;28.38;7.40;;;;;;;0.74;79.84;101727.00;1765302;79;21731;-81
2022/02/24 00:12:52;;;;;;;31.73;8.15;;;;;;;0.72;79.83;101719.50;1753835;79;21480;-81
2022/02/24 00:15:19;;;;;;;27.80;7.28;;;;;;;0.70;79.86;101723.27;1737880;82;21338;-81
2022/02/24 00:17:46;;;;;;;29.98;7.85;;;;;;;0.70;79.83;101731.03;1737885;82;21101;-82
2022/02/24 00:20:12;;;;;;;33.38;8.33;;;;;;;0.70;79.76;101728.84;1738071;82;21173;-81
2022/02/24 00:22:40;;;;;;;34.60;7.92;;;;;;;0.68;79.76;101727.42;1737817;82;21757;-81
2022/02/24 00:25:08;;;;;;;30.97;7.92;;;;;;;0.67;79.83;101728.59;1737902;82;21612;-81
2022/02/24 00:27:34;;;;;;;33.33;7.30;;;;;;;0.68;79.98;101730.02;1737900;82;21097;-82
2022/02/24 00:30:02;;;;;;;32.30;8.28;;;;;;;0.73;80.22;101726.11;1737791;81;21136;-82
2022/02/24 00:32:29;;;;;;;25.82;7.33;;;;;;;0.79;80.35;101732.17;1737926;82;21072;-81
2022/02/24 00:34:55;;;;;;;30.92;7.22;;;;;;;0.83;80.38;101721.66;1737770;82;21751;-81
2022/02/24 00:37:22;;;;;;;28.30;6.62;;;;;;;0.89;80.43;101729.92;1737763;82;21055;-81
2022/02/24 00:39:48;;;;;;;34.98;7.50;;;;;;;0.92;80.45;101716.81;1737734;82;21136;-82
2022/02/24 00:42:15;;;;;;;29.95;7.72;;;;;;;0.96;80.42;101719.26;1737700;82;21042;-81
2022/02/24 00:44:42;;;;;;;27.55;7.70;;;;;;;1.00;80.42;101717.81;1737806;82;21097;-82
2022/02/24 00:47:08;;;;;;;32.00;7.10;;;;;;;1.02;80.34;101713.25;1737864;82;21747;-82
2022/02/24 00:49:35;;;;;;;28.17;6.75;;;;;;;1.05;80.33;101716.47;1737731;82;21014;-82
2022/02/24 00:52:02;;;;;;;29.90;7.83;;;;;;;1.04;80.20;101713.38;1737963;82;21081;-83
2022/02/24 00:54:29;;;;;;;31.87;7.55;;;;;;;1.02;80.16;101719.73;1737894;82;21081;-82
2022/02/24 00:56:55;;;;;;;30.62;7.25;;;;;;;1.03;80.17;101709.86;1737939;82;21555;-82
2022/02/24 00:59:22;;;;;;;28.77;7.65;;;;;;;1.04;80.19;101708.19;1737876;82;21706;-82
2022/02/24 01:01:48;;;;;;;33.63;7.70;;;;;;;1.02;80.10;101705.88;1737631;82;21581;-82
2022/02/24 01:04:15;;;;;;;28.60;7.20;;;;;;;1.02;80.08;101705.88;1737627;82;21571;-81
2022/02/24 01:06:42;;;;;;;36.28;8.35;;;;;;;0.98;80.00;101707.31;1737639;81;21064;-81
2022/02/24 01:09:09;;;;;;;27.87;7.35;;;;;;;0.95;79.96;101701.88;1737876;82;21586;-82
2022/02/24 01:11:36;;;;;;;30.72;7.67;;;;;;;0.92;80.03;101702.92;1737882;81;21735;-82
2022/02/24 01:14:02;;;;;;;25.40;7.05;;;;;;;0.90;79.99;101699.31;1737529;81;21745;-82
2022/02/24 01:16:29;;;;;;;22.22;7.30;;;;;;;0.87;79.93;101702.58;1737486;82;21107;-82
2022/02/24 01:18:57;;;;;;;28.62;6.72;;;;;;;0.80;79.89;101692.50;1737838;81;21006;-81
2022/02/24 01:21:23;;;;;;;28.47;7.83;;;;;;;0.81;79.87;101698.58;1737828;82;21037;-82
2022/02/24 01:23:50;;;;;;;33.42;7.47;;;;;;;0.75;79.83;101696.04;1737680;82;21806;-82
2022/02/24 01:26:17;;;;;;;31.70;8.90;;;;;;;0.71;79.80;101691.77;1737536;81;21303;-81
2022/02/24 01:28:43;;;;;;;31.42;9.85;;;;;;;0.67;79.84;101693.61;1737619;82;21117;-82
2022/02/24 01:31:10;;;;;;;35.35;9.18;;;;;;;0.62;79.77;101691.95;1737693;82;21141;-82
2022/02/24 01:33:36;;;;;;;34.10;9.60;;;;;;;0.57;79.76;101692.86;1737724;81;22470;-81
2022/02/24 01:36:03;;;;;;;28.15;8.43;;;;;;;0.52;79.76;101694.58;1737804;81;21752;-81
2022/02/24 01:38:30;;;;;;;38.28;9.53;;;;;;;0.49;79.89;101700.42;1737823;82;21041;-82
2022/02/24 01:40:56;;;;;;;33.98;8.78;;;;;;;0.46;79.97;101696.68;1737961;82;21735;-82
2022/02/24 01:43:23;;;;;;;32.08;9.08;;;;;;;0.45;80.09;101693.56;1737774;81;21049;-82
2022/02/24 01:45:50;;;;;;;33.58;9.65;;;;;;;0.43;80.17;101697.72;1708726;82;21053;-82
2022/02/24 01:48:16;;;;;;;33.18;8.93;;;;;;;0.42;80.22;101697.22;1737728;82;22591;-82
2022/02/24 01:50:43;;;;;;;30.12;9.33;;;;;;;0.43;80.34;101686.06;1737675;82;21082;-82
2022/02/24 01:53:11;;;;;;;25.97;8.48;;;;;;;0.43;80.36;101685.66;1737543;81;32918;-82
2022/02/24 01:55:38;;;;;;;33.73;10.65;;;;;;;0.44;80.37;101690.47;1737350;82;21042;-82
2022/02/24 01:58:04;;;;;;;26.97;9.08;;;;;;;0.42;80.41;101682.98;1745676;82;21053;-82
2022/02/24 02:00:31;;;;;;;33.18;8.88;;;;;;;0.41;80.44;101682.05;1745582;80;22550;-82
2022/02/24 02:02:58;;;;;;;38.25;10.15;;;;;;;0.41;80.48;101675.97;1737599;82;21459;-82
2022/02/24 02:05:25;;;;;;;41.20;10.65;;;;;;;0.42;80.51;101679.09;1745557;82;21049;-82
2022/02/24 02:07:51;;;;;;;29.60;9.75;;;;;;;0.41;80.52;101672.09;1745647;80;21143;-82
2022/02/24 02:10:18;;;;;;;34.10;10.98;;;;;;;0.37;80.55;101664.45;1737626;81;21033;-82
2022/02/24 02:12:50;;;;;;;33.25;10.23;;;;;;;0.41;80.53;101673.38;1745345;80;21732;-81
2022/02/24 02:15:17;;;;;;;36.58;11.03;;;;;;;0.37;80.43;101665.75;1744968;80;21831;-82
2022/02/24 02:17:44;;;;;;;37.45;10.15;;;;;;;0.35;80.39;101668.61;1745642;81;21108;-82
2022/02/24 02:20:11;;;;;;;39.73;12.53;;;;;;;0.32;80.35;101677.42;1745762;80;21057;-81
2022/02/24 02:22:38;;;;;;;26.40;10.80;;;;;;;0.28;80.42;101659.46;1745813;81;21050;-82
2022/02/24 02:25:06;;;;;;;35.05;12.82;;;;;;;0.27;80.39;101663.22;1745871;80;21167;-81
2022/02/24 02:27:33;;;;;;;36.53;11.83;;;;;;;0.23;80.39;101667.23;1745716;80;21579;-82
2022/02/24 02:30:00;;;;;;;38.40;12.37;;;;;;;0.23;80.44;101672.81;1745823;82;21077;-81
2022/02/24 02:32:27;;;;;;;39.90;12.85;;;;;;;0.19;80.44;101665.19;1745537;82;21061;-82
2022/02/24 02:34:53;;;;;;;36.28;13.53;;;;;;;0.16;80.47;101659.34;1745674;80;22162;-82
2022/02/24 02:37:20;;;;;;;37.42;12.40;;;;;;;0.14;80.46;101656.13;1745867;81;21740;-82
2022/02/24 02:39:46;;;;;;;33.00;12.45;;;;;;;0.10;80.46;101652.39;1745755;80;21081;-81
2022/02/24 02:42:14;;;;;;;37.13;12.95;;;;;;;0.08;80.52;101647.88;1746007;82;21123;-81
2022/02/24 02:44:41;;;;;;;33.13;12.55;;;;;;;0.05;80.50;101649.80;1745779;80;21053;-82
2022/02/24 02:47:08;;;;;;;35.30;11.38;;;;;;;0.04;80.54;101640.25;1746043;81;21046;-81
2022/02/24 02:49:34;;;;;;;38.83;13.55;;;;;;;0.04;80.57;101645.42;1745787;80;21715;-81
2022/02/24 02:52:01;;;;;;;42.17;13.08;;;;;;;0.02;80.60;101640.88;1745831;80;20990;-82
2022/02/24 02:54:28;;;;;;;34.75;12.50;;;;;;;0.02;80.66;101640.52;1745876;82;21030;-80
2022/02/24 02:56:54;;;;;;;38.25;13.53;;;;;;;-0.01;80.64;101647.63;1745786;81;21096;-81
2022/02/24 02:59:21;;;;;;;41.98;13.45;;;;;;;-0.02;80.68;101644.53;1745819;80;21049;-81
2022/02/24 03:01:54;;;;;;;32.42;12.23;;;;;;;-0.03;80.69;101635.34;1745729;81;21768;-81
2022/02/24 03:04:21;;;;;;;37.70;12.70;;;;;;;-0.05;80.70;101633.92;1745898;80;21729;-83
2022/02/24 03:06:48;;;;;;;39.38;12.30;;;;;;;-0.07;80.79;101626.42;1746096;82;21081;-82
2022/02/24 03:09:14;;;;;;;30.90;10.93;;;;;;;-0.07;80.82;101623.84;1717025;82;21157;-81
2022/02/24 03:11:41;;;;;;;29.65;10.90;;;;;;;-0.08;80.88;101617.23;1745967;81;21112;-81
2022/02/24 03:14:08;;;;;;;38.98;12.95;;;;;;;-0.08;80.95;101622.41;1745902;80;21785;-82
2022/02/24 03:16:34;;;;;;;35.68;10.53;;;;;;;-0.06;81.03;101626.03;1745818;81;21634;-82
2022/02/24 03:19:01;;;;;;;34.53;10.53;;;;;;;-0.06;81.02;101629.91;1746039;82;21057;-81
2022/02/24 03:21:28;;;;;;;33.25;11.18;;;;;;;-0.07;81.04;101629.02;1745755;82;21045;-81
2022/02/24 03:23:54;;;;;;;39.18;11.03;;;;;;;-0.07;81.05;101626.83;1745932;80;21128;-82
2022/02/24 03:26:21;;;;;;;33.02;10.28;;;;;;;-0.07;81.04;101629.41;1745932;82;21721;-81
2022/02/24 03:28:47;;;;;;;34.75;11.25;;;;;;;-0.08;81.04;101626.30;1745635;82;21555;-82
2022/02/24 03:31:14;;;;;;;40.60;10.95;;;;;;;-0.09;81.02;101623.20;1745714;80;21080;-82
2022/02/24 03:33:41;;;;;;;31.23;9.98;;;;;;;-0.09;81.11;101633.56;1745563;81;21219;-81
2022/02/24 03:36:07;;;;;;;27.30;10.43;;;;;;;-0.13;80.98;101624.64;1745740;81;21517;-81
2022/02/24 03:38:34;;;;;;;32.98;10.43;;;;;;;-0.12;81.02;101626.83;1745769;81;21776;-82
2022/02/24 03:41:00;;;;;;;35.70;9.98;;;;;;;-0.15;81.02;101623.61;1745734;80;21293;-81
2022/02/24 03:43:27;;;;;;;29.30;10.00;;;;;;;-0.15;81.08;101626.20;1745696;81;21579;-81
2022/02/24 03:45:54;;;;;;;27.42;9.73;;;;;;;-0.14;81.15;101625.80;1745826;80;21049;-80
2022/02/24 03:48:20;;;;;;;29.20;10.35;;;;;;;-0.14;81.20;101621.92;1737885;82;21053;-82
2022/02/24 03:50:47;;;;;;;27.37;9.50;;;;;;;-0.15;81.24;101621.02;1745974;81;21681;-81
2022/02/24 03:53:14;;;;;;;32.42;10.20;;;;;;;-0.12;81.32;101623.84;1737924;82;21370;-82
2022/02/24 03:55:40;;;;;;;31.90;10.48;;;;;;;-0.13;81.31;101617.24;1745895;81;21104;-82
2022/02/24 03:58:07;;;;;;;25.95;9.18;;;;;;;-0.13;81.34;101612.99;1745707;80;21037;-81
2022/02/24 04:00:33;;;;;;;27.70;10.08;;;;;;;-0.11;81.38;101618.27;1745869;81;21132;-81
2022/02/24 04:03:00;;;;;;;28.47;9.40;;;;;;;-0.13;81.34;101611.70;1745971;81;22532;-82
2022/02/24 04:05:27;;;;;;;29.10;9.43;;;;;;;-0.13;81.36;101605.59;1737942;81;21622;-81
2022/02/24 04:07:54;;;;;;;31.70;10.13;;;;;;;-0.14;81.35;101602.11;1738104;82;21112;-81
2022/02/24 04:10:20;;;;;;;29.35;9.88;;;;;;;-0.15;81.39;101606.80;1737856;82;21092;-82
2022/02/24 04:12:47;;;;;;;26.15;9.13;;;;;;;-0.13;81.42;101605.59;1737747;82;21062;-82
2022/02/24 04:15:14;;;;;;;35.78;10.43;;;;;;;-0.13;81.40;101603.01;1737612;80;21800;-82
2022/02/24 04:17:40;;;;;;;28.07;9.63;;;;;;;-0.15;81.40;101600.33;1745780;80;21049;-81
2022/02/24 04:20:09;;;;;;;31.95;10.58;;;;;;;-0.14;81.43;101597.34;1745918;80;21065;-82
2022/02/24 04:22:36;;;;;;;32.95;10.40;;;;;;;-0.13;81.49;101603.01;1745833;80;21049;-81
2022/02/24 04:25:03;;;;;;;34.30;11.18;;;;;;;-0.09;81.56;101592.16;1745948;81;21041;-82
2022/02/24 04:27:30;;;;;;;29.77;10.58;;;;;;;-0.08;81.55;101598.72;1745925;81;21930;-82
2022/02/24 04:29:56;;;;;;;34.18;10.80;;;;;;;-0.08;81.52;101583.59;1745784;80;21084;-82
2022/02/24 04:32:23;;;;;;;35.55;9.83;;;;;;;-0.08;81.54;101581.90;1745798;82;21201;-82
2022/02/24 04:34:49;;;;;;;28.40;10.32;;;;;;;-0.07;81.54;101584.12;1738095;81;21140;-82
2022/02/24 04:37:16;;;;;;;30.77;9.63;;;;;;;-0.07;81.54;101582.83;1746015;81;21061;-82
2022/02/24 04:39:43;;;;;;;27.73;9.88;;;;;;;-0.07;81.51;101575.06;1737709;82;22549;-81
2022/02/24 04:42:09;;;;;;;32.93;9.18;;;;;;;-0.08;81.47;101583.19;1737560;82;21515;-83
2022/02/24 04:44:36;;;;;;;33.20;9.68;;;;;;;-0.08;81.52;101578.41;1737764;82;21120;-83
2022/02/24 04:47:03;;;;;;;27.10;9.75;;;;;;;-0.08;81.56;101562.89;1762356;80;21046;-82
2022/02/24 04:49:30;;;;;;;34.35;10.70;;;;;;;-0.09;81.51;101568.47;1767827;80;21061;-81
2022/02/24 04:51:56;;;;;;;25.75;10.43;;;;;;;-0.10;81.46;101566.64;1768173;79;21728;-81
2022/02/24 04:54:23;;;;;;;30.70;11.45;;;;;;;-0.13;81.44;101566.78;1768218;79;21079;-82
2022/02/24 04:56:49;;;;;;;27.27;10.20;;;;;;;-0.14;81.44;101560.70;1762219;80;21094;-81
2022/02/24 04:59:16;;;;;;;37.90;11.12;;;;;;;-0.14;81.45;101570.17;1762083;81;21047;-80
2022/02/24 05:01:43;;;;;;;33.65;11.18;;;;;;;-0.14;81.48;101570.17;1762351;81;21560;-81
2022/02/24 05:04:10;;;;;;;24.82;10.10;;;;;;;-0.16;81.46;101569.14;1762487;81;21752;-81
2022/02/24 05:06:36;;;;;;;30.60;11.15;;;;;;;-0.18;81.46;101567.72;1762125;81;21074;-81
2022/02/24 05:09:03;;;;;;;28.77;10.35;;;;;;;-0.20;81.49;101561.52;1762249;81;21129;-81
2022/02/24 05:11:29;;;;;;;30.57;10.85;;;;;;;-0.21;81.44;101560.62;1761799;79;21176;-81
2022/02/24 05:13:56;;;;;;;30.88;11.15;;;;;;;-0.23;81.49;101559.56;1757307;81;21062;-82
2022/02/24 05:16:23;;;;;;;30.25;10.23;;;;;;;-0.23;81.52;101559.96;1725949;82;21979;-81
2022/02/24 05:18:49;;;;;;;26.05;9.90;;;;;;;-0.23;81.48;101554.79;1744201;82;21080;-81
2022/02/24 05:21:17;;;;;;;30.55;10.20;;;;;;;-0.25;81.49;101551.17;1744008;81;21240;-81
2022/02/24 05:23:43;;;;;;;34.00;12.10;;;;;;;-0.25;81.57;101546.90;1747656;81;21015;-83
2022/02/24 05:26:10;;;;;;;37.67;15.70;;;;;;;-0.26;81.49;101541.23;1740954;81;21128;-81
2022/02/24 05:28:36;;;;;;;37.33;15.08;;;;;;;-0.27;81.48;101535.92;1739864;81;21724;-81
2022/02/24 05:31:03;;;;;;;31.73;13.72;;;;;;;-0.28;81.49;101533.73;1742426;81;21015;-82
2022/02/24 05:33:30;;;;;;;31.68;11.38;;;;;;;-0.30;81.50;101528.83;1727104;83;21072;-82
2022/02/24 05:35:57;;;;;;;29.23;11.90;;;;;;;-0.31;81.47;101528.30;1743692;81;21566;-81
2022/02/24 05:38:24;;;;;;;25.25;9.88;;;;;;;-0.30;81.54;101534.00;1726518;81;21617;-82
2022/02/24 05:40:50;;;;;;;28.87;9.90;;;;;;;-0.30;81.54;101530.48;1752254;81;21789;-82
2022/02/24 05:43:17;;;;;;;29.92;12.50;;;;;;;-0.30;81.59;101531.41;1726308;81;21536;-82
2022/02/24 05:45:43;;;;;;;31.07;11.40;;;;;;;-0.29;81.61;101525.45;1752267;81;21332;-83
2022/02/24 05:48:11;;;;;;;27.67;10.68;;;;;;;-0.29;81.58;101527.14;1752352;81;21083;-83
2022/02/24 05:50:37;;;;;;;32.45;11.93;;;;;;;-0.30;81.59;101518.48;1752216;81;21072;-81
2022/02/24 05:53:04;;;;;;;33.00;12.13;;;;;;;-0.29;81.67;101512.91;1751966;81;21811;-81
2022/02/24 05:55:35;;;;;;;27.50;10.68;;;;;;;-0.26;81.66;101514.46;1751543;81;21048;-81
2022/02/24 05:58:01;;;;;;;35.68;10.93;;;;;;;-0.25;81.65;101503.31;1750578;81;21335;-79
2022/02/24 06:00:28;;;;;;;36.45;11.50;;;;;;;-0.25;81.59;101499.03;1722420;82;21065;-80
2022/02/24 06:02:55;;;;;;;31.52;10.72;;;;;;;-0.23;81.68;101492.69;1739989;82;21070;-85
2022/02/24 06:05:21;;;;;;;33.60;11.93;;;;;;;-0.18;81.69;101495.67;1739118;81;22341;-81
2022/02/24 06:07:48;;;;;;;29.90;11.60;;;;;;;-0.16;81.70;101491.52;1739301;82;21074;-80
2022/02/24 06:10:15;;;;;;;35.13;11.90;;;;;;;-0.11;81.73;101496.28;1739136;81;21058;-80
2022/02/24 06:12:41;;;;;;;28.12;10.30;;;;;;;-0.07;81.74;101487.08;1739229;82;21062;-81
2022/02/24 06:15:09;;;;;;;34.90;12.20;;;;;;;-0.02;81.78;101484.07;1775982;78;21096;-80
2022/02/24 06:17:36;;;;;;;27.20;11.03;;;;;;;0.03;81.73;101484.42;1793152;78;21795;-80
2022/02/24 06:20:04;;;;;;;30.77;11.20;;;;;;;0.09;81.74;101480.11;1793075;78;21045;-79
2022/02/24 06:22:30;;;;;;;27.55;10.20;;;;;;;0.13;81.71;101480.49;1793488;79;21534;-81
2022/02/24 06:24:57;;;;;;;33.73;11.85;;;;;;;0.22;81.79;101480.29;1793448;78;21088;-80
2022/02/24 06:27:24;;;;;;;30.25;12.10;;;;;;;0.29;81.77;101475.20;1793540;79;21049;-80
2022/02/24 06:29:50;;;;;;;37.23;12.60;;;;;;;0.36;81.75;101468.44;1793400;78;21729;-80
2022/02/24 06:32:17;;;;;;;43.50;14.73;;;;;;;0.44;81.77;101471.21;1793558;78;21053;-81
2022/02/24 06:34:43;;;;;;;43.10;15.63;;;;;;;0.52;81.73;101463.63;1793556;80;21040;-81
2022/02/24 06:37:10;;;;;;;41.73;16.75;;;;;;;0.59;81.68;101459.83;1793736;79;21046;-80
2022/02/24 06:39:37;;;;;;;45.85;16.40;;;;;;;0.66;81.64;101455.63;1793542;80;21001;-81
2022/02/24 06:42:04;;;;;;;42.40;15.35;;;;;;;0.73;81.51;101455.69;1793564;79;23181;-80
2022/02/24 06:44:31;;;;;;;39.75;15.50;;;;;;;0.78;81.47;101446.58;1793439;79;21025;-80
2022/02/24 06:46:57;;;;;;;40.65;15.40;;;;;;;0.83;81.39;101445.64;1793560;80;21025;-81
2022/02/24 06:49:24;;;;;;;32.60;12.73;;;;;;;0.91;81.42;101445.41;1793445;78;21033;-81
2022/02/24 06:51:53;;;;;;;30.68;12.35;;;;;;;0.99;81.37;101433.42;1793650;80;21021;-81
2022/02/24 06:54:19;;;;;;;34.10;12.03;;;;;;;1.04;81.31;101438.16;1793780;79;21771;-81
2022/02/24 06:56:45;;;;;;;27.85;10.13;;;;;;;1.11;81.21;101433.05;1793873;79;21510;-81
2022/02/24 06:59:13;;;;;;;28.87;11.57;;;;;;;1.18;81.19;101436.57;1793846;78;21017;-81
2022/02/24 07:01:39;;;;;;;31.02;11.28;;;;;;;1.26;81.14;101441.02;1793455;78;21674;-81
2022/02/24 07:04:06;;;;;;;24.70;11.10;;;;;;;1.33;81.14;101441.61;1793575;80;21053;-81
2022/02/24 07:06:33;;;;;;;30.17;11.00;;;;;;;1.41;81.10;101437.35;1793427;78;21729;-81
2022/02/24 07:09:00;;;;;;;31.40;11.03;;;;;;;1.51;81.11;101432.05;1793526;80;21017;-81
2022/02/24 07:11:26;;;;;;;30.00;10.65;;;;;;;1.61;81.06;101431.91;1793560;79;21045;-81
2022/02/24 07:13:53;;;;;;;28.75;10.70;;;;;;;1.70;80.96;101429.09;1793335;79;21602;-81
2022/02/24 07:16:20;;;;;;;29.85;11.70;;;;;;;1.79;80.90;101418.47;1793093;78;21101;-81
2022/02/24 07:18:47;;;;;;;27.45;10.15;;;;;;;1.88;80.85;101423.02;1793369;79;21874;-81
2022/02/24 07:21:13;;;;;;;27.25;11.03;;;;;;;1.98;80.79;101418.06;1767001;80;21036;-81
2022/02/24 07:23:40;;;;;;;31.05;11.22;;;;;;;2.06;80.72;101411.30;1793576;78;21144;-81
2022/02/24 07:26:07;;;;;;;28.45;10.43;;;;;;;2.17;80.66;101410.75;1793708;79;21005;-81
2022/02/24 07:28:36;;;;;;;28.45;10.90;;;;;;;2.27;80.57;101410.98;1793700;78;21053;-80
2022/02/24 07:31:02;;;;;;;27.15;10.03;;;;;;;2.38;80.49;101411.73;1793611;79;21760;-80
2022/02/24 07:33:29;;;;;;;34.23;13.53;;;;;;;2.47;80.42;101408.05;1793449;78;21041;-80
2022/02/24 07:35:56;;;;;;;33.35;12.85;;;;;;;2.59;80.35;101404.48;1793670;78;21092;-80
2022/02/24 07:38:22;;;;;;;26.12;9.35;;;;;;;2.69;80.22;101399.13;1793534;79;21712;-80
2022/02/24 07:40:49;;;;;;;29.42;10.53;;;;;;;2.81;80.17;101398.63;1793725;79;21053;-80
2022/02/24 07:43:15;;;;;;;33.33;9.88;;;;;;;2.93;80.09;101395.96;1793617;78;22557;-80
2022/02/24 07:45:44;;;;;;;30.00;11.28;;;;;;;3.05;79.94;101392.84;1766096;80;21053;-80
2022/02/24 07:48:10;;;;;;;28.30;9.60;;;;;;;3.18;79.80;101388.45;1793681;79;21045;-80
2022/02/24 07:50:37;;;;;;;38.33;18.73;;;;;;;3.30;79.63;101387.94;1793630;79;20986;-81
2022/02/24 07:53:04;;;;;;;23.92;10.15;;;;;;;3.39;79.49;101387.64;1793746;79;21053;-81
2022/02/24 07:55:31;;;;;;;22.65;9.80;;;;;;;3.48;79.29;101381.31;1793725;78;21687;-80
2022/02/24 07:57:57;;;;;;;20.65;9.58;;;;;;;3.56;79.11;101383.09;1793566;78;21053;-81
2022/02/24 08:00:24;;;;;;;31.15;11.70;;;;;;;3.64;78.94;101380.59;1793564;79;21064;-80
2022/02/24 08:02:55;;;;;;;24.65;11.33;;;;;;;3.71;78.73;101377.95;1793428;78;21138;-80
2022/02/24 08:05:19;;;;;;;31.23;10.85;;;;;;;3.76;78.55;101378.26;1793408;79;21064;-80
2022/02/24 08:07:46;;;;;;;25.75;10.08;;;;;;;3.84;78.41;101381.81;1793637;78;21711;-80
2022/02/24 08:10:12;;;;;;;19.85;8.75;;;;;;;3.91;78.30;101379.62;1793601;79;21045;-81
2022/02/24 08:12:39;;;;;;;34.23;11.25;;;;;;;3.98;78.22;101372.66;1793275;78;21591;-81
2022/02/24 08:15:08;;;;;;;29.48;10.55;;;;;;;4.03;77.95;101370.83;1793369;79;20978;-80
2022/02/24 08:17:35;;;;;;;27.50;12.43;;;;;;;4.11;77.84;101370.40;1793110;78;21099;-80
2022/02/24 08:20:05;;;;;;;28.10;10.05;;;;;;;4.17;77.84;101366.47;1793803;78;22525;-81
2022/02/24 08:22:34;;;;;;;26.37;8.73;;;;;;;4.28;77.69;101364.11;1793560;79;21061;-81
2022/02/24 08:25:01;;;;;;;19.40;8.83;;;;;;;4.34;77.43;101354.46;1793611;78;21541;-80
2022/02/24 08:27:28;;;;;;;25.25;9.48;;;;;;;4.41;77.37;101348.81;1793652;78;21025;-81
2022/02/24 08:29:56;;;;;;;29.07;10.00;;;;;;;4.51;77.24;101348.05;1793679;78;21076;-80
2022/02/24 08:32:27;;;;;;;26.97;10.08;;;;;;;4.56;77.04;101340.07;1793704;78;22595;-81
2022/02/24 08:34:53;;;;;;;26.12;10.48;;;;;;;4.64;77.00;101341.44;1793604;78;21089;-80
2022/02/24 08:37:20;;;;;;;27.93;10.98;;;;;;;4.72;76.78;101336.67;1793712;78;21100;-81
2022/02/24 08:39:46;;;;;;;26.12;9.65;;;;;;;4.78;76.70;101337.02;1793696;78;22127;-81
2022/02/24 08:42:13;;;;;;;23.57;9.78;;;;;;;4.86;76.59;101341.87;1793779;79;21025;-81
2022/02/24 08:44:43;;;;;;;26.33;9.98;;;;;;;4.93;76.39;101340.50;1793684;79;22989;-81
2022/02/24 08:47:08;;;;;;;31.10;10.20;;;;;;;5.00;76.17;101335.23;1793393;78;21021;-81
2022/02/24 08:49:35;;;;;;;19.20;8.33;;;;;;;5.07;76.02;101336.08;1793871;78;21060;-80
2022/02/24 08:52:01;;;;;;;20.25;8.90;;;;;;;5.16;75.84;101329.16;1793518;78;21057;-81
2022/02/24 08:54:29;;;;;;;21.12;10.30;;;;;;;5.23;75.69;101332.61;1793504;79;21029;-81
2022/02/24 08:56:56;;;;;;;21.20;8.20;;;;;;;5.29;75.46;101319.89;1793463;78;21744;-81
2022/02/24 08:59:22;;;;;;;23.62;8.35;;;;;;;5.36;75.37;101318.11;1793516;79;21081;-81
2022/02/24 09:01:49;;;;;;;26.48;9.08;;;;;;;5.41;75.13;101308.83;1793336;79;21056;-81
2022/02/24 09:04:15;;;;;;;20.70;9.43;;;;;;;5.45;74.99;101304.27;1793366;79;21077;-80
2022/02/24 09:06:42;;;;;;;24.43;9.18;;;;;;;5.49;74.84;101299.22;1793329;78;21049;-81
2022/02/24 09:09:09;;;;;;;34.40;12.43;;;;;;;5.54;74.83;101297.34;1793196;80;22630;-80
2022/02/24 09:11:35;;;;;;;26.60;12.00;;;;;;;5.63;74.73;101286.47;1793488;79;21590;-80
2022/02/24 09:14:02;;;;;;;41.88;19.62;;;;;;;5.70;74.57;101290.33;1793493;79;21028;-81
2022/02/24 09:16:29;;;;;;;31.90;14.00;;;;;;;5.78;74.56;101291.23;1793203;78;21212;-81
2022/02/24 09:18:55;;;;;;;35.88;14.58;;;;;;;5.88;74.45;101287.38;1793291;78;21064;-80
2022/02/24 09:21:22;;;;;;;42.03;16.65;;;;;;;5.97;74.28;101282.67;1793430;79;21728;-81
2022/02/24 09:23:49;;;;;;;37.13;15.48;;;;;;;6.08;74.13;101278.40;1793370;79;21657;-81
2022/02/24 09:26:16;;;;;;;35.92;12.37;;;;;;;6.18;74.12;101277.66;1793540;79;21025;-81
2022/02/24 09:28:43;;;;;;;23.70;8.63;;;;;;;6.30;73.96;101262.98;1793493;79;21172;-81
2022/02/24 09:31:09;;;;;;;24.72;10.95;;;;;;;6.39;73.76;101256.92;1793656;79;21014;-81
2022/02/24 09:33:36;;;;;;;30.27;11.12;;;;;;;6.51;73.55;101257.04;1793481;79;22532;-81
2022/02/24 09:36:03;;;;;;;56.10;17.10;;;;;;;6.63;73.40;101247.62;1793226;78;21198;-80
2022/02/24 09:38:30;;;;;;;40.63;14.43;;;;;;;6.76;73.26;101243.46;1793429;78;21154;-81
2022/02/24 09:40:56;;;;;;;34.40;13.25;;;;;;;6.90;73.07;101241.49;1793508;79;21620;-81
2022/02/24 09:43:28;;;;;;;24.82;10.68;;;;;;;6.99;72.84;101228.42;1793680;78;21578;-81
2022/02/24 09:46:02;;;;;;;30.05;12.18;;;;;;;7.08;72.65;101225.36;1793639;78;21716;-81
2022/02/24 09:48:31;;;;;;;30.00;12.20;;;;;;;7.20;72.69;101221.98;1793824;78;21049;-81
2022/02/24 09:50:58;;;;;;;24.52;9.08;;;;;;;7.32;72.12;101215.52;1793686;79;21034;-81
2022/02/24 09:53:27;;;;;;;27.27;8.98;;;;;;;7.41;72.00;101215.93;1793917;78;21049;-81
2022/02/24 09:55:54;;;;;;;19.23;6.97;;;;;;;7.51;71.88;101214.65;1793620;79;21045;-81
2022/02/24 09:58:21;;;;;;;18.20;7.03;;;;;;;7.61;71.70;101209.40;1793670;78;21446;-81
2022/02/24 10:00:48;;;;;;;25.68;9.85;;;;;;;7.72;71.51;101213.39;1766666;78;21582;-81
2022/02/24 10:03:40;;;;;;;24.25;8.35;;;;;;;7.81;71.25;101203.31;1793558;78;21036;-81
2022/02/24 10:06:06;;;;;;;25.00;7.83;;;;;;;7.89;70.84;101194.04;1793642;78;21017;-81
2022/02/24 10:08:35;;;;;;;24.57;7.25;;;;;;;7.95;70.33;101191.67;1794003;79;21124;-81
2022/02/24 10:11:03;;;;;;;15.48;6.37;;;;;;;8.04;70.28;101187.25;1793689;78;21736;-80
2022/02/24 10:13:29;;;;;;;19.42;5.75;;;;;;;8.16;70.22;101175.05;1793672;78;21065;-81
2022/02/24 10:16:01;;;;;;;17.82;6.05;;;;;;;8.29;69.85;101176.46;1793554;78;21024;-81
2022/02/24 10:18:31;;;;;;;12.78;5.42;;;;;;;8.37;69.43;101172.41;1793687;79;21500;-81
2022/02/24 10:21:01;;;;;;;21.23;6.42;;;;;;;8.42;69.09;101168.71;1793231;79;21088;-81
2022/02/24 10:23:34;;;;;;;16.42;6.65;;;;;;;8.45;68.77;101154.42;1793438;79;21748;-81
2022/02/24 10:26:05;;;;;;;11.80;4.10;;;;;;;8.49;68.42;101162.89;1793103;79;21096;-81
2022/02/24 10:28:49;;;;;;;14.53;5.87;;;;;;;8.54;68.06;101162.23;1793317;79;21065;-80
2022/02/24 10:31:20;;;;;;;11.08;5.53;;;;;;;8.58;67.73;101151.84;1793106;78;21068;-80
2022/02/24 10:33:50;;;;;;;16.27;5.92;;;;;;;8.59;67.40;101140.09;1793531;80;21080;-82
2022/02/24 10:36:25;;;;;;;14.68;6.22;;;;;;;8.58;67.18;101140.95;1793033;78;21744;-81
2022/02/24 10:39:09;;;;;;;14.07;5.17;;;;;;;8.59;67.18;101133.97;1793352;78;21104;-81
2022/02/24 10:41:41;;;;;;;17.07;5.42;;;;;;;8.66;67.01;101124.19;1793435;79;20998;-81
2022/02/24 10:44:18;;;;;;;11.70;5.15;;;;;;;8.73;66.84;101113.98;1793559;78;21096;-81
2022/02/24 10:47:01;;;;;;;15.00;5.55;;;;;;;8.80;66.56;101113.78;1791869;78;21621;-81
2022/02/24 10:49:36;;;;;;;14.57;6.07;;;;;;;8.89;66.57;101093.56;1785524;80;21741;-80
2022/02/24 10:52:21;;;;;;;14.75;6.95;;;;;;;8.99;66.25;101096.09;1793443;79;21052;-81
2022/02/24 10:55:05;;;;;;;16.52;6.80;;;;;;;9.14;66.38;101094.02;1793747;78;21114;-81
2022/02/24 10:57:31;;;;;;;14.45;5.80;;;;;;;9.34;66.44;101090.38;1793814;79;21076;-81
2022/02/24 10:59:58;;;;;;;19.75;11.38;;;;;;;9.53;66.23;101076.18;1793558;79;21060;-81
2022/02/24 11:02:27;;;;;;;76.72;41.23;;;;;;;9.67;66.16;101067.87;1793512;78;22574;-81
2022/02/24 11:04:54;;;;;;;34.80;18.92;;;;;;;9.81;65.83;101061.75;1793137;79;21048;-81
2022/02/24 11:07:22;;;;;;;15.68;7.42;;;;;;;9.89;65.55;101058.94;1793737;79;21101;-82
2022/02/24 11:09:48;;;;;;;15.78;5.40;;;;;;;9.95;65.13;101054.30;1793492;79;21203;-81
2022/02/24 11:12:16;;;;;;;12.53;4.92;;;;;;;9.98;64.70;101050.47;1793639;79;21048;-81
2022/02/24 11:14:46;;;;;;;11.12;4.70;;;;;;;10.00;64.35;101046.14;1793485;78;22625;-81
2022/02/24 11:17:12;;;;;;;12.35;5.12;;;;;;;10.02;63.92;101041.82;1790491;78;21048;-81
2022/02/24 11:19:40;;;;;;;11.83;4.75;;;;;;;10.03;63.77;101033.98;1790118;78;21564;-81